Sunday, July 22, 2018, 12:29 AM MDT
Back to Local

KSLC, Salt Lake City International Airport

Location: Salt Lake City, UT, United States Lat: 40.783
Local Time: 12:29 AM MDT ( 6:29 GMT) Lon: -111.967
Time Zone: US/Mountain Elev: 4225 ft

Show me the last for .
Show Decoded

2018-07-21 23:54 METAR KSLC 220554Z 17013KT 10SM FEW110 BKN150 BKN200 25/13 A3011 RMK AO2 PK WND
                 18030/0501 RAB18E24 SLP134 P0000 60000 T02500133 10356 20239 51018 =
2018-07-21 22:54 METAR KSLC 220454Z 17021G30KT 10SM SCT090 BKN110 BKN200 26/13 A3011 RMK AO2 PK
                 WND 17034/0420 SLP133 T02560128 =
2018-07-21 21:54 METAR KSLC 220354Z 17023G30KT 10SM SCT065 BKN090 BKN120 BKN200 25/14 A3010 RMK
                 AO2 PK WND 17041/0320 WSHFT 0241 RAE42 SLP133 VIRGA P0000 T02500144 =
2018-07-21 20:54 METAR KSLC 220254Z 17033G48KT 4SM -RA BKN090 BKN120 BKN200 28/13 A3005 RMK AO2
                 PK WND 17048/0250 WSHFT 0240 LTG DSNT SE RAB51 SLP114 VIRGA CB DSNT SE P0000
                 60000 T02780133 53022 =
2018-07-21 19:54 METAR KSLC 220154Z 34005KT 10SM SCT110 BKN150 BKN200 34/07 A2999 RMK AO2 LTG
                 DSNT S SLP089 VIRGA TS DSNT S MOV NE T03390067 =
2018-07-21 18:54 METAR KSLC 220054Z 30008KT 10SM SCT120 BKN160 BKN200 34/07 A2999 RMK AO2 SLP091
                 VIRGA T03440067 =
2018-07-21 17:54 METAR KSLC 212354Z 30008KT 10SM SCT120 BKN180 BKN210 35/07 A2998 RMK AO2 SLP086
                 TCU DSNT S T03500067 10367 20328 56011 =
2018-07-21 16:54 METAR KSLC 212254Z 00000KT 10SM SCT110TCU SCT180 BKN210 34/07 A2999 RMK AO2
                 SLP087 VIRGA TCU SW AND DSNT E-W T03440067 =
2018-07-21 15:54 METAR KSLC 212154Z 32008KT 10SM SCT100TCU BKN190 BKN220 35/08 A3000 RMK AO2
                 SLP093 TCU E-SW AND DSNT E-W AND N T03500078 =
2018-07-21 14:54 METAR KSLC 212054Z 00000KT 10SM SCT120 SCT150 34/09 A3002 RMK AO2 SLP098 TCU
                 SE-S T03440089 58013 =
2018-07-21 13:54 METAR KSLC 211954Z VRB04KT 10SM FEW100 SCT130 BKN180 34/09 A3003 RMK AO2 SLP102
                 VIRGA DSNT S TCU DSNT E-SE T03440094 =
2018-07-21 12:54 METAR KSLC 211854Z 14008KT 10SM FEW080 SCT120 BKN200 34/09 A3005 RMK AO2 SLP109
                 TCU DSNT E AND SE T03390089 =
2018-07-21 11:54 METAR KSLC 211754Z 19013G19KT 10SM FEW090 SCT140 BKN200 32/10 A3006 RMK AO2
                 SLP112 TCU W AND DSNT SE T03220100 10322 20222 50001 =
2018-07-21 10:54 METAR KSLC 211654Z 18015KT 10SM FEW130 SCT150 BKN190 31/10 A3007 RMK AO2 SLP114
                 T03110100 =
2018-07-21 09:54 METAR KSLC 211554Z 16009KT 10SM SCT130 BKN180 29/11 A3006 RMK AO2 SLP115 TCU
                 DSNT N T02940111 =
2018-07-21 08:54 METAR KSLC 211454Z 15013KT 10SM FEW140 BKN180 28/12 A3006 RMK AO2 SLP114
                 T02780117 51007 =
2018-07-21 07:54 METAR KSLC 211354Z 12008KT 10SM FEW150 SCT180 BKN200 26/11 A3006 RMK AO2 SLP114
                 T02560106 =
2018-07-21 06:54 METAR KSLC 211254Z 14006KT 10SM FEW150 SCT180 BKN220 24/11 A3005 RMK AO2 SLP112
                 T02390106 =
2018-07-21 05:54 METAR KSLC 211154Z 19003KT 10SM SCT180 SCT220 23/11 A3004 RMK AO2 SLP107
                 T02330106 10283 20233 51009 =
2018-07-21 04:54 METAR KSLC 211054Z 14004KT 10SM SCT200 25/11 A3003 RMK AO2 SLP107 T02500106 =
2018-07-21 03:54 METAR KSLC 210954Z 11005KT 10SM FEW110 BKN180 24/11 A3003 RMK AO2 SLP108
                 T02440106 =
2018-07-21 02:54 METAR KSLC 210854Z 16008KT 10SM FEW120 BKN180 26/09 A3001 RMK AO2 SLP098
                 T02560089 55001 =
2018-07-21 01:54 METAR KSLC 210754Z 14008KT 10SM FEW150 BKN200 26/09 A3000 RMK AO2 SLP095
                 T02610089 =
2018-07-21 00:54 METAR KSLC 210654Z 12008KT 10SM SCT150 BKN200 27/08 A3000 RMK AO2 SLP095
                 T02670083 403390239 =

Support USWX by starting your Amazon purchase here.